createdAt,value
2022-10-28T00:00:33.092Z,62.20
2022-10-28T00:01:33.161Z,62.91
2022-10-28T00:02:33.231Z,64.02
2022-10-28T00:03:33.127Z,65.85
2022-10-28T00:04:33.074Z,67.67
2022-10-28T00:05:33.034Z,69.19
2022-10-28T00:06:33.110Z,70.48
2022-10-28T00:07:33.015Z,71.57
2022-10-28T00:08:33.004Z,71.89
2022-10-28T00:09:33.059Z,71.82
2022-10-28T00:10:32.989Z,72.13
2022-10-28T00:11:33.022Z,71.82
2022-10-28T00:12:32.972Z,72.64
2022-10-28T00:13:32.951Z,73.67
2022-10-28T00:14:33.066Z,74.39
2022-10-28T00:15:32.933Z,74.66
2022-10-28T00:16:33.004Z,75.20
2022-10-28T00:17:32.922Z,75.68
2022-10-28T00:18:32.916Z,76.10
2022-10-28T00:19:32.935Z,76.31
2022-10-28T00:20:32.893Z,76.66
2022-10-28T00:21:32.877Z,76.66
2022-10-28T00:22:32.856Z,76.38
2022-10-28T00:23:32.888Z,76.17
2022-10-28T00:24:32.842Z,74.73
2022-10-28T00:25:32.881Z,73.41
2022-10-28T00:26:32.873Z,72.39
2022-10-28T00:27:32.814Z,70.60
2022-10-28T00:28:32.876Z,69.25
2022-10-28T00:29:32.796Z,68.11
2022-10-28T00:30:32.803Z,67.40
2022-10-28T00:31:32.838Z,66.86
2022-10-28T00:32:32.762Z,66.59
2022-10-28T00:33:32.786Z,66.32
2022-10-28T00:34:32.754Z,66.69
2022-10-28T00:35:32.728Z,67.12
2022-10-28T00:36:32.725Z,67.45
2022-10-28T00:37:32.758Z,67.95
2022-10-28T00:38:32.721Z,68.11
2022-10-28T00:39:32.770Z,68.39
2022-10-28T00:40:32.693Z,68.73
2022-10-28T00:41:32.673Z,68.85
2022-10-28T00:42:32.779Z,68.56
2022-10-28T00:43:32.669Z,69.71
2022-10-28T00:44:32.639Z,70.36
2022-10-28T00:45:32.695Z,71.57
2022-10-28T00:46:32.636Z,72.57
2022-10-28T00:47:32.613Z,73.21
2022-10-28T00:48:32.608Z,73.80
2022-10-28T00:49:32.604Z,73.67
2022-10-28T00:50:32.641Z,73.86
2022-10-28T00:51:32.566Z,73.86
2022-10-28T00:52:32.613Z,73.41
2022-10-28T00:53:32.610Z,73.15
2022-10-28T00:54:32.586Z,72.64
2022-10-28T00:55:32.547Z,71.82
2022-10-28T00:56:32.523Z,71.51
2022-10-28T00:57:32.504Z,71.39
2022-10-28T00:58:32.561Z,71.51
2022-10-28T00:59:32.489Z,72.07
2022-10-28T01:00:32.486Z,72.45
2022-10-28T01:01:32.566Z,73.02
2022-10-28T01:02:32.532Z,73.47
2022-10-28T01:03:32.510Z,73.80
2022-10-28T01:04:32.470Z,74.33
2022-10-28T01:05:32.452Z,74.93
2022-10-28T01:06:32.437Z,75.68
2022-10-28T01:07:32.469Z,76.66
2022-10-28T01:08:32.403Z,77.44
2022-10-28T01:09:32.397Z,77.37
2022-10-28T01:10:32.442Z,77.08
2022-10-28T01:11:32.373Z,75.13
2022-10-28T01:12:32.362Z,72.57
2022-10-28T01:13:32.369Z,70.96
2022-10-28T01:14:32.340Z,68.11
2022-10-28T01:15:32.344Z,66.06
2022-10-28T01:16:32.361Z,64.42
2022-10-28T01:17:32.320Z,62.77
2022-10-28T01:18:32.382Z,61.42
2022-10-28T01:19:32.353Z,60.48
2022-10-28T01:20:36.102Z,58.85
2022-10-28T01:21:32.273Z,57.47
2022-10-28T01:22:32.368Z,56.49
2022-10-28T01:23:32.261Z,55.92
2022-10-28T01:24:32.234Z,55.33
2022-10-28T01:25:32.290Z,55.26
2022-10-28T01:26:32.214Z,54.96
2022-10-28T01:27:32.210Z,55.29
2022-10-28T01:28:32.209Z,55.70
2022-10-28T01:29:32.279Z,56.15
2022-10-28T01:30:32.232Z,56.73
2022-10-28T01:31:32.236Z,56.88
2022-10-28T01:32:32.164Z,57.43
2022-10-28T01:33:32.155Z,57.55
2022-10-28T01:34:32.153Z,57.31
2022-10-28T01:35:32.151Z,57.55
2022-10-28T01:36:32.195Z,57.15
2022-10-28T01:37:32.103Z,57.23
2022-10-28T01:38:32.144Z,57.08
2022-10-28T01:39:32.109Z,56.69
2022-10-28T01:40:32.213Z,56.46
2022-10-28T01:41:32.063Z,56.73
2022-10-28T01:42:32.116Z,56.38
2022-10-28T01:43:32.056Z,55.96
2022-10-28T01:44:32.113Z,56.04
2022-10-28T01:45:32.047Z,56.11
2022-10-28T01:46:32.021Z,56.42
2022-10-28T01:47:32.009Z,56.49
2022-10-28T01:48:32.084Z,56.65
2022-10-28T01:49:32.031Z,56.19
2022-10-28T01:50:31.975Z,56.80
2022-10-28T01:51:31.961Z,57.15
2022-10-28T01:52:31.960Z,58.03
2022-10-28T01:53:31.939Z,58.61
2022-10-28T01:54:31.978Z,58.98
2022-10-28T01:55:31.917Z,58.98
2022-10-28T01:56:31.960Z,59.74
2022-10-28T01:57:31.977Z,61.38
2022-10-28T01:58:31.940Z,62.25
2022-10-28T01:59:31.935Z,64.12
2022-10-28T02:00:31.915Z,65.95
2022-10-28T02:01:32.028Z,68.17
2022-10-28T02:02:31.878Z,70.24
2022-10-28T02:03:31.837Z,72.01
2022-10-28T02:04:31.895Z,73.15
2022-10-28T02:05:31.836Z,74.39
2022-10-28T02:06:31.916Z,74.73
2022-10-28T02:07:31.837Z,75.20
2022-10-28T02:08:31.797Z,74.53
2022-10-28T02:09:31.797Z,74.33
2022-10-28T02:10:31.860Z,73.54
2022-10-28T02:11:31.844Z,72.83
2022-10-28T02:12:31.750Z,72.32
2022-10-28T02:13:31.846Z,71.03
2022-10-28T02:14:31.786Z,70.07
2022-10-28T02:15:31.721Z,68.17
2022-10-28T02:16:31.720Z,66.48
2022-10-28T02:17:31.703Z,65.18
2022-10-28T02:18:31.708Z,63.10
2022-10-28T02:19:31.724Z,61.56
2022-10-28T02:20:31.698Z,59.40
2022-10-28T02:21:31.666Z,58.36
2022-10-28T02:22:31.669Z,57.15
2022-10-28T02:23:31.711Z,56.76
2022-10-28T02:24:31.631Z,55.62
2022-10-28T02:25:31.622Z,55.11
2022-10-28T02:26:31.614Z,54.25
2022-10-28T02:27:31.604Z,54.10
2022-10-28T02:28:31.638Z,53.55
2022-10-28T02:29:31.617Z,53.34
2022-10-28T02:30:31.589Z,53.34
2022-10-28T02:31:31.628Z,53.10
2022-10-28T02:32:31.558Z,53.69
2022-10-28T02:33:31.547Z,53.79
2022-10-28T02:34:31.604Z,54.39
2022-10-28T02:35:31.539Z,54.67
2022-10-28T02:36:31.657Z,54.53
2022-10-28T02:37:31.537Z,54.21
2022-10-28T02:38:31.496Z,54.03
2022-10-28T02:39:31.516Z,53.31
2022-10-28T02:40:31.481Z,51.72
2022-10-28T02:41:31.533Z,50.89
2022-10-28T02:42:31.466Z,49.56
2022-10-28T02:43:31.436Z,48.35
2022-10-28T02:44:31.439Z,47.33
2022-10-28T02:45:31.500Z,46.90
2022-10-28T02:46:31.417Z,45.47
2022-10-28T02:47:31.398Z,44.74
2022-10-28T02:48:31.431Z,43.43
2022-10-28T02:49:31.446Z,42.76
2022-10-28T02:50:31.405Z,42.63
2022-10-28T02:51:31.409Z,41.90
2022-10-28T02:52:31.394Z,41.52
2022-10-28T02:53:31.434Z,41.19
2022-10-28T02:54:31.401Z,41.03
2022-10-28T02:55:31.331Z,40.59
2022-10-28T02:56:31.317Z,40.47
2022-10-28T02:57:31.322Z,40.55
2022-10-28T02:58:31.363Z,40.47
2022-10-28T02:59:31.325Z,40.95
2022-10-28T03:00:31.303Z,41.11
2022-10-28T03:01:31.378Z,41.56
2022-10-28T03:02:31.258Z,41.73
2022-10-28T03:03:31.283Z,41.81
2022-10-28T03:04:31.239Z,42.24
2022-10-28T03:05:31.225Z,42.50
2022-10-28T03:06:31.217Z,42.85
2022-10-28T03:07:31.228Z,42.89
2022-10-28T03:08:31.191Z,43.02
2022-10-28T03:09:31.223Z,43.47
2022-10-28T03:10:31.221Z,43.61
2022-10-28T03:11:31.210Z,44.21
2022-10-28T03:12:31.156Z,44.03
2022-10-28T03:13:31.185Z,44.26
2022-10-28T03:14:31.268Z,44.83
2022-10-28T03:15:31.126Z,44.83
2022-10-28T03:16:31.123Z,45.17
2022-10-28T03:17:31.134Z,45.52
2022-10-28T03:18:31.093Z,45.47
2022-10-28T03:19:31.128Z,45.52
2022-10-28T03:20:31.090Z,45.37
2022-10-28T03:21:31.080Z,45.97
2022-10-28T03:22:31.067Z,45.57
2022-10-28T03:23:31.112Z,45.07
2022-10-28T03:24:31.043Z,44.12
2022-10-28T03:25:31.038Z,43.29
2022-10-28T03:26:31.236Z,43.20
2022-10-28T03:27:31.002Z,43.16
2022-10-28T03:28:30.993Z,42.98
2022-10-28T03:29:31.066Z,43.65
2022-10-28T03:30:31.001Z,43.89
2022-10-28T03:31:30.962Z,44.07
2022-10-28T03:32:30.955Z,44.12
2022-10-28T03:33:30.991Z,44.03
2022-10-28T03:34:30.950Z,42.85
2022-10-28T03:35:31.004Z,41.65
2022-10-28T03:36:30.969Z,40.99
2022-10-28T03:37:30.927Z,40.99
2022-10-28T03:38:30.908Z,41.52
2022-10-28T03:39:30.880Z,40.55
2022-10-28T03:40:30.879Z,40.35
2022-10-28T03:41:30.863Z,39.89
2022-10-28T03:42:30.907Z,39.10
2022-10-28T03:43:30.844Z,38.96
2022-10-28T03:44:30.861Z,38.70
2022-10-28T03:45:30.826Z,38.67
2022-10-28T03:46:33.595Z,38.77
2022-10-28T03:47:30.875Z,38.49
2022-10-28T03:48:30.797Z,38.42
2022-10-28T03:49:30.789Z,38.42
2022-10-28T03:50:30.791Z,38.20
2022-10-28T03:51:30.768Z,37.68
2022-10-28T03:52:30.812Z,37.89
2022-10-28T03:53:31.541Z,37.82
2022-10-28T03:54:30.737Z,37.45
2022-10-28T03:55:30.764Z,37.38
2022-10-28T03:56:30.728Z,37.89
2022-10-28T03:57:30.766Z,37.62
2022-10-28T03:58:30.737Z,37.45
2022-10-28T03:59:30.692Z,37.48
2022-10-28T04:00:30.681Z,37.38
2022-10-28T04:01:30.777Z,37.35
2022-10-28T04:02:30.769Z,37.21
2022-10-28T04:03:30.694Z,37.35
2022-10-28T04:04:30.871Z,37.45
2022-10-28T04:05:30.666Z,37.79
2022-10-28T04:06:30.635Z,37.92
2022-10-28T04:07:30.609Z,38.27
2022-10-28T04:08:30.672Z,38.13
2022-10-28T04:09:30.631Z,38.13
2022-10-28T04:10:30.581Z,37.82
2022-10-28T04:11:30.642Z,38.17
2022-10-28T04:12:30.594Z,38.13
2022-10-28T04:13:30.543Z,38.20
2022-10-28T04:14:30.573Z,38.42
2022-10-28T04:15:30.531Z,39.06
2022-10-28T04:16:30.529Z,39.40
2022-10-28T04:17:30.549Z,39.25
2022-10-28T04:18:30.547Z,39.81
2022-10-28T04:19:30.514Z,39.89
2022-10-28T04:20:30.487Z,40.35
2022-10-28T04:21:30.531Z,40.67
2022-10-28T04:22:30.480Z,41.11
2022-10-28T04:23:30.509Z,41.35
2022-10-28T04:24:30.444Z,41.81
2022-10-28T04:25:30.426Z,42.19
2022-10-28T04:26:30.465Z,42.41
2022-10-28T04:27:30.401Z,42.45
2022-10-28T04:28:30.422Z,42.50
2022-10-28T04:29:30.426Z,42.19
2022-10-28T04:30:30.371Z,42.24
2022-10-28T04:31:30.374Z,41.90
2022-10-28T04:32:30.380Z,41.69
2022-10-28T04:33:30.342Z,41.48
2022-10-28T04:34:30.361Z,41.15
2022-10-28T04:35:30.363Z,40.47
2022-10-28T04:36:30.320Z,39.97
2022-10-28T04:37:30.319Z,39.44
2022-10-28T04:38:30.314Z,38.99
2022-10-28T04:39:30.332Z,39.06
2022-10-28T04:40:30.277Z,38.74
2022-10-28T04:41:30.301Z,38.74
2022-10-28T04:42:30.257Z,38.56
2022-10-28T04:43:30.240Z,38.38
2022-10-28T04:44:30.272Z,38.10
2022-10-28T04:45:30.304Z,38.20
2022-10-28T04:46:30.262Z,38.13
2022-10-28T04:47:30.222Z,38.06
2022-10-28T04:48:30.193Z,37.72
2022-10-28T04:49:30.191Z,37.99
2022-10-28T04:50:30.207Z,38.24
2022-10-28T04:51:30.205Z,38.31
2022-10-28T04:52:30.265Z,38.20
2022-10-28T04:53:30.218Z,39.10
2022-10-28T04:54:30.135Z,39.81
2022-10-28T04:55:30.139Z,40.39
2022-10-28T04:56:30.164Z,41.52
2022-10-28T04:57:30.125Z,42.76
2022-10-28T04:58:30.111Z,44.07
2022-10-28T04:59:30.127Z,45.42
2022-10-28T05:00:30.073Z,46.80
2022-10-28T05:01:30.167Z,47.63
2022-10-28T05:02:30.178Z,48.51
2022-10-28T05:03:30.077Z,49.23
2022-10-28T05:04:30.095Z,50.25
2022-10-28T05:05:30.039Z,51.11
2022-10-28T05:06:30.042Z,51.27
2022-10-28T05:07:30.080Z,50.52
2022-10-28T05:08:30.007Z,49.53
2022-10-28T05:09:29.987Z,48.43
2022-10-28T05:10:30.084Z,47.03
2022-10-28T05:11:29.997Z,46.38
2022-10-28T05:12:30.043Z,45.27
2022-10-28T05:13:30.006Z,43.93
2022-10-28T05:14:29.962Z,43.29
2022-10-28T05:15:29.974Z,42.50
2022-10-28T05:16:29.942Z,41.94
2022-10-28T05:17:29.909Z,41.35
2022-10-28T05:18:29.948Z,40.83
2022-10-28T05:19:29.890Z,40.47
2022-10-28T05:20:29.881Z,40.04
2022-10-28T05:21:29.844Z,39.66
2022-10-28T05:22:29.866Z,39.21
2022-10-28T05:23:30.851Z,38.92
2022-10-28T05:24:29.833Z,38.96
2022-10-28T05:25:29.835Z,38.52
2022-10-28T05:26:29.866Z,38.42
2022-10-28T05:27:29.807Z,37.96
2022-10-28T05:28:29.797Z,37.82
2022-10-28T05:29:33.132Z,37.65
2022-10-28T05:30:29.766Z,37.28
2022-10-28T05:31:29.717Z,37.08
2022-10-28T05:32:29.728Z,37.15
2022-10-28T05:33:29.793Z,36.53
2022-10-28T05:34:29.680Z,36.27
2022-10-28T05:35:29.678Z,35.96
2022-10-28T05:36:29.678Z,35.47
2022-10-28T05:37:29.683Z,34.96
2022-10-28T05:38:29.644Z,35.38
2022-10-28T05:39:29.698Z,35.96
2022-10-28T05:40:29.691Z,35.68
2022-10-28T05:41:29.659Z,35.65
2022-10-28T05:42:29.615Z,35.83
2022-10-28T05:43:29.612Z,35.99
2022-10-28T05:44:29.577Z,35.59
2022-10-28T05:46:29.631Z,35.87
2022-10-28T05:47:29.553Z,35.59
2022-10-28T05:48:29.545Z,35.20
2022-10-28T05:49:29.539Z,35.20
2022-10-28T05:50:29.520Z,35.41
2022-10-28T05:51:29.591Z,35.53
2022-10-28T05:52:29.507Z,35.47
2022-10-28T05:53:29.494Z,35.05
2022-10-28T05:54:29.546Z,35.29
2022-10-28T05:55:29.521Z,34.99
2022-10-28T05:56:29.467Z,35.17
2022-10-28T05:57:29.525Z,35.23
2022-10-28T05:58:29.465Z,35.53
2022-10-28T05:59:29.466Z,35.05
2022-10-28T06:00:29.439Z,35.23
2022-10-28T06:01:29.523Z,35.14
2022-10-28T06:02:29.581Z,35.41
2022-10-28T06:03:31.248Z,35.23
2022-10-28T06:04:29.388Z,35.41
2022-10-28T06:05:29.378Z,35.38
2022-10-28T06:06:29.362Z,35.41
2022-10-28T06:07:29.357Z,35.47
2022-10-28T06:08:29.405Z,35.47
2022-10-28T06:09:29.342Z,35.50
2022-10-28T06:10:29.404Z,35.47
2022-10-28T06:11:27.778Z,35.50
2022-10-28T06:12:27.809Z,35.77
2022-10-28T06:13:27.785Z,35.93
2022-10-28T06:14:27.801Z,35.90
2022-10-28T06:15:27.795Z,36.18
2022-10-28T06:16:27.790Z,36.30
2022-10-28T06:17:27.848Z,36.62
2022-10-28T06:18:27.732Z,36.75
2022-10-28T06:19:27.751Z,37.05
2022-10-28T06:20:27.746Z,37.21
2022-10-28T06:21:27.730Z,37.51
2022-10-28T06:22:27.761Z,37.58
2022-10-28T06:23:27.716Z,37.86
2022-10-28T06:24:27.681Z,38.06
2022-10-28T06:25:27.664Z,38.42
2022-10-28T06:26:27.653Z,38.27
2022-10-28T06:27:27.671Z,38.10
2022-10-28T06:28:27.681Z,38.03
2022-10-28T06:29:27.635Z,37.89
2022-10-28T06:30:27.671Z,37.89
2022-10-28T06:31:27.632Z,37.75
2022-10-28T06:32:27.595Z,37.55
2022-10-28T06:33:27.649Z,37.79
2022-10-28T06:34:27.618Z,37.62
2022-10-28T06:35:27.565Z,37.48
2022-10-28T06:36:27.554Z,37.51
2022-10-28T06:37:27.551Z,37.45
2022-10-28T06:38:27.583Z,37.68
2022-10-28T06:39:27.599Z,38.10
2022-10-28T06:40:27.546Z,38.38
2022-10-28T06:41:27.504Z,38.49
2022-10-28T06:42:27.508Z,39.14
2022-10-28T06:43:27.513Z,39.81
2022-10-28T06:44:27.499Z,40.47
2022-10-28T06:45:27.526Z,41.23
2022-10-28T06:46:27.457Z,42.76
2022-10-28T06:47:29.006Z,43.56
2022-10-28T06:48:28.962Z,44.03
2022-10-28T06:49:28.998Z,44.31
2022-10-28T06:50:28.991Z,45.52
2022-10-28T06:51:28.948Z,46.85
2022-10-28T06:52:28.996Z,47.79
2022-10-28T06:53:28.934Z,48.92
2022-10-28T06:54:28.913Z,49.26
2022-10-28T06:55:28.916Z,50.03
2022-10-28T06:56:28.919Z,49.88
2022-10-28T06:57:29.382Z,49.82
2022-10-28T06:58:28.869Z,50.31
2022-10-28T06:59:28.862Z,50.03
2022-10-28T07:00:28.974Z,50.74
2022-10-28T07:01:29.082Z,50.99
2022-10-28T07:02:28.949Z,50.71
2022-10-28T07:03:28.876Z,50.12
2022-10-28T07:04:28.885Z,49.67
2022-10-28T07:05:28.810Z,48.60
2022-10-28T07:06:28.799Z,47.76
2022-10-28T07:07:28.803Z,46.87
2022-10-28T07:08:28.788Z,46.59
2022-10-28T07:09:28.820Z,46.64
2022-10-28T07:10:28.749Z,47.06
2022-10-28T07:11:28.748Z,47.63
2022-10-28T07:12:28.735Z,48.46
2022-10-28T07:13:28.750Z,49.85
2022-10-28T07:14:28.775Z,51.27
2022-10-28T07:15:28.711Z,51.88
2022-10-28T07:16:28.695Z,52.01
2022-10-28T07:17:28.710Z,52.50
2022-10-28T07:18:28.731Z,52.87
2022-10-28T07:19:28.672Z,53.51
2022-10-28T07:20:28.672Z,53.79
2022-10-28T07:21:28.664Z,53.86
2022-10-28T07:22:28.686Z,55.00
2022-10-28T07:23:28.633Z,55.55
2022-10-28T07:24:28.675Z,55.22
2022-10-28T07:25:28.615Z,54.75
2022-10-28T07:26:28.665Z,54.42
2022-10-28T07:27:28.622Z,53.44
2022-10-28T07:28:28.597Z,52.87
2022-10-28T07:29:28.617Z,52.73
2022-10-28T07:30:28.576Z,51.88
2022-10-28T07:31:28.578Z,51.75
2022-10-28T07:32:28.626Z,53.07
2022-10-28T07:33:28.575Z,55.85
2022-10-28T07:34:28.539Z,56.65
2022-10-28T07:35:28.519Z,58.48
2022-10-28T07:36:28.545Z,61.24
2022-10-28T07:37:28.499Z,66.06
2022-10-28T07:38:28.530Z,70.36
2022-10-28T07:39:28.539Z,73.02
2022-10-28T07:40:28.484Z,75.47
2022-10-28T07:41:28.456Z,76.10
2022-10-28T07:42:28.461Z,75.20
2022-10-28T07:43:28.524Z,73.34
2022-10-28T07:44:28.493Z,71.15
2022-10-28T07:45:28.416Z,67.51
2022-10-28T07:46:28.405Z,63.49
2022-10-28T07:47:28.419Z,59.53
2022-10-28T07:48:28.398Z,55.89
2022-10-28T07:49:28.423Z,52.67
2022-10-28T07:50:28.475Z,50.06
2022-10-28T07:51:28.422Z,47.85
2022-10-28T07:52:28.413Z,46.17
2022-10-28T07:53:28.964Z,44.78
2022-10-28T07:54:28.323Z,43.38
2022-10-28T07:55:28.350Z,42.63
2022-10-28T07:56:28.408Z,41.52
2022-10-28T07:57:28.342Z,40.75
2022-10-28T07:58:28.334Z,40.20
2022-10-28T07:59:28.282Z,39.97
2022-10-28T08:00:28.328Z,39.32
2022-10-28T08:01:28.394Z,39.03
2022-10-28T08:02:28.233Z,38.49
2022-10-28T08:03:34.670Z,38.38
2022-10-28T08:04:28.257Z,38.06
2022-10-28T08:05:28.220Z,37.55
2022-10-28T08:06:28.272Z,37.89
2022-10-28T08:07:28.204Z,37.25
2022-10-28T08:08:28.192Z,36.72
2022-10-28T08:09:28.217Z,36.59
2022-10-28T08:10:28.138Z,36.18
2022-10-28T08:11:28.193Z,35.93
2022-10-28T08:12:28.169Z,35.77
2022-10-28T08:13:28.187Z,35.65
2022-10-28T08:14:28.087Z,35.62
2022-10-28T08:15:28.087Z,35.90
2022-10-28T08:16:28.113Z,35.87
2022-10-28T08:17:28.113Z,36.24
2022-10-28T08:18:28.057Z,36.40
2022-10-28T08:19:28.058Z,36.49
2022-10-28T08:20:28.086Z,36.43
2022-10-28T08:21:28.069Z,36.27
2022-10-28T08:22:28.039Z,36.46
2022-10-28T08:23:28.007Z,36.27
2022-10-28T08:24:28.002Z,36.08
2022-10-28T08:25:27.969Z,35.90
2022-10-28T08:26:27.959Z,35.62
2022-10-28T08:27:28.006Z,35.38
2022-10-28T08:28:28.039Z,35.44
2022-10-28T08:29:30.168Z,35.38
2022-10-28T08:30:29.030Z,35.02
2022-10-28T08:31:27.952Z,34.96
2022-10-28T08:32:27.934Z,34.67
2022-10-28T08:33:27.961Z,34.38
2022-10-28T08:34:27.883Z,34.27
2022-10-28T08:35:27.885Z,33.99
2022-10-28T08:36:27.869Z,33.80
2022-10-28T08:37:27.932Z,33.60
2022-10-28T08:38:27.900Z,33.23
2022-10-28T08:39:27.840Z,33.04
2022-10-28T08:40:27.818Z,33.04
2022-10-28T08:41:27.810Z,32.73
2022-10-28T08:42:27.839Z,32.73
2022-10-28T08:43:45.975Z,32.84
2022-10-28T08:44:27.880Z,33.04
2022-10-28T08:45:27.834Z,33.02
2022-10-28T08:46:27.780Z,32.97
2022-10-28T08:47:27.759Z,33.28
2022-10-28T08:48:27.748Z,33.31
2022-10-28T08:49:27.754Z,33.36
2022-10-28T08:50:27.774Z,33.39
2022-10-28T08:51:27.726Z,33.39
2022-10-28T08:52:27.747Z,33.60
2022-10-28T08:53:27.797Z,33.74
2022-10-28T08:54:27.762Z,33.74
2022-10-28T08:55:27.691Z,33.69
2022-10-28T08:56:27.666Z,33.77
2022-10-28T08:57:27.784Z,33.71
2022-10-28T08:58:27.664Z,33.52
2022-10-28T08:59:27.633Z,33.52
2022-10-28T09:00:27.634Z,33.52
2022-10-28T09:01:27.910Z,33.42
2022-10-28T09:02:27.649Z,33.42
2022-10-28T09:03:27.613Z,33.36
2022-10-28T09:04:27.667Z,33.36
2022-10-28T09:05:27.669Z,33.28
2022-10-28T09:06:27.626Z,33.31
2022-10-28T09:07:27.589Z,33.36
2022-10-28T09:08:27.583Z,33.55
2022-10-28T09:09:27.564Z,33.85
2022-10-28T09:10:27.547Z,34.35
2022-10-28T09:11:27.615Z,34.67
2022-10-28T09:12:27.532Z,35.08
2022-10-28T09:13:27.523Z,35.44
2022-10-28T09:14:27.524Z,35.80
2022-10-28T09:15:27.519Z,35.59
2022-10-28T09:16:27.540Z,35.35
2022-10-28T09:17:27.520Z,35.26
2022-10-28T09:18:27.457Z,35.87
2022-10-28T09:19:27.463Z,36.21
2022-10-28T09:20:27.459Z,36.98
2022-10-28T09:21:27.465Z,38.03
2022-10-28T09:22:27.505Z,38.99
2022-10-28T09:23:27.551Z,39.06
2022-10-28T09:24:27.382Z,39.51
2022-10-28T09:25:27.421Z,40.39
2022-10-28T09:26:27.472Z,42.28
2022-10-28T09:27:27.443Z,44.21
2022-10-28T09:28:27.367Z,46.17
2022-10-28T09:29:27.368Z,47.27
2022-10-28T09:30:27.385Z,48.49
2022-10-28T09:31:27.800Z,49.38
2022-10-28T09:32:27.413Z,52.14
2022-10-28T09:33:27.457Z,55.18
2022-10-28T09:34:27.365Z,57.95
2022-10-28T09:35:27.449Z,61.33
2022-10-28T09:36:27.420Z,64.82
2022-10-28T09:37:27.378Z,67.78
2022-10-28T09:38:27.310Z,69.71
2022-10-28T09:39:27.999Z,71.70
2022-10-28T09:40:27.310Z,74.06
2022-10-28T09:41:27.272Z,76.10
2022-10-28T09:42:27.511Z,76.45
2022-10-28T09:43:27.228Z,78.61
2022-10-28T09:44:27.254Z,80.52
2022-10-28T09:45:27.298Z,83.60
2022-10-28T09:46:27.272Z,84.19
2022-10-28T09:47:27.224Z,87.10
2022-10-28T09:48:27.266Z,87.74
2022-10-28T09:49:27.192Z,88.02
2022-10-28T09:50:27.215Z,88.30
2022-10-28T09:51:27.367Z,87.93
2022-10-28T09:52:27.441Z,87.19
2022-10-28T09:53:27.209Z,86.65
2022-10-28T09:54:27.112Z,88.87
2022-10-28T09:55:27.171Z,93.89
2022-10-28T09:56:27.104Z,95.54
2022-10-28T09:57:27.098Z,98.90
2022-10-28T09:58:27.213Z,105.15
2022-10-28T09:59:27.052Z,111.65
2022-10-28T10:00:27.024Z,117.49
2022-10-28T10:01:27.182Z,118.75
2022-10-28T10:02:27.104Z,121.71
2022-10-28T10:03:27.009Z,121.44
2022-10-28T10:04:27.008Z,120.91
2022-10-28T10:05:26.983Z,122.42
2022-10-28T10:06:27.042Z,126.43
2022-10-28T10:07:26.975Z,133.11
2022-10-28T10:08:27.031Z,138.20
2022-10-28T10:09:27.901Z,145.71
2022-10-28T10:10:26.940Z,152.38
2022-10-28T10:11:27.251Z,156.25
2022-10-28T10:12:26.897Z,160.63
2022-10-28T10:13:26.959Z,164.77
2022-10-28T10:14:26.903Z,170.16
2022-10-28T10:15:26.921Z,175.55
2022-10-28T10:16:26.874Z,178.96
2022-10-28T10:17:26.878Z,179.73
2022-10-28T10:18:26.919Z,180.12
2022-10-28T10:19:26.891Z,178.96
2022-10-28T10:20:26.842Z,179.92
2022-10-28T10:21:26.819Z,177.81
2022-10-28T10:22:26.817Z,175.18
2022-10-28T10:23:26.867Z,173.72
2022-10-28T10:24:26.832Z,175.18
2022-10-28T10:25:27.016Z,176.67
2022-10-28T10:26:26.783Z,179.15
2022-10-28T10:27:26.830Z,174.45
2022-10-28T10:28:26.768Z,172.28
2022-10-28T10:29:26.742Z,168.95
2022-10-28T10:30:26.730Z,172.28
2022-10-28T10:31:26.713Z,171.92
2022-10-28T10:32:26.757Z,171.39
2022-10-28T10:33:26.703Z,177.43
2022-10-28T10:34:26.685Z,187.15
2022-10-28T10:35:26.678Z,189.42
2022-10-28T10:36:26.704Z,189.09
2022-10-28T10:37:26.727Z,188.98
2022-10-28T10:38:26.646Z,189.64
2022-10-28T10:39:26.661Z,193.92
2022-10-28T10:40:26.637Z,195.77
2022-10-28T10:41:26.727Z,199.36
2022-10-28T10:42:26.603Z,198.99
2022-10-28T10:43:26.642Z,201.45
2022-10-28T10:44:26.615Z,202.44
2022-10-28T10:45:26.596Z,210.80
2022-10-28T10:46:26.624Z,215.81
2022-10-28T10:47:26.622Z,222.57
2022-10-28T10:48:26.565Z,232.88
2022-10-28T10:49:26.570Z,234.04
2022-10-28T10:50:26.606Z,232.21
2022-10-28T10:51:26.551Z,237.79
2022-10-28T10:52:26.536Z,238.65
2022-10-28T10:53:26.562Z,242.91
2022-10-28T10:54:26.501Z,241.83
2022-10-28T10:55:26.558Z,246.95
2022-10-28T10:56:26.485Z,248.26
2022-10-28T10:57:26.495Z,250.35
2022-10-28T10:58:26.554Z,259.29
2022-10-28T10:59:26.478Z,254.05
2022-10-28T11:00:26.620Z,250.74
2022-10-28T11:01:26.565Z,257.45
2022-10-28T11:02:26.633Z,264.75
2022-10-28T11:03:26.465Z,267.57
2022-10-28T11:04:26.447Z,268.89
2022-10-28T11:05:29.266Z,266.69
2022-10-28T11:06:26.449Z,263.68
2022-10-28T11:07:26.373Z,265.39
2022-10-28T11:08:26.357Z,278.51
2022-10-28T11:09:26.384Z,278.51
2022-10-28T11:10:26.552Z,272.47
2022-10-28T11:11:26.395Z,270.22
2022-10-28T11:12:27.087Z,266.69
2022-10-28T11:13:26.323Z,262.83
2022-10-28T11:14:26.351Z,270.22
2022-10-28T11:15:26.319Z,274.99
2022-10-28T11:16:26.294Z,276.62
2022-10-28T11:17:26.429Z,272.93
2022-10-28T11:18:26.283Z,269.33
2022-10-28T11:19:26.253Z,270.89
2022-10-28T11:20:26.285Z,278.98
2022-10-28T11:21:26.260Z,277.80
2022-10-28T11:22:26.228Z,279.46
2022-10-28T11:23:26.243Z,290.64
2022-10-28T11:24:26.212Z,289.87
2022-10-28T11:25:26.249Z,287.32
2022-10-28T11:26:26.294Z,285.57
2022-10-28T11:27:26.257Z,273.61
2022-10-28T11:28:26.273Z,252.48
2022-10-28T11:29:26.219Z,251.70
2022-10-28T11:30:26.152Z,243.64
2022-10-28T11:31:26.183Z,238.83
2022-10-28T11:32:26.135Z,233.21
2022-10-28T11:33:30.643Z,225.18
2022-10-28T11:34:26.107Z,209.31
2022-10-28T11:35:26.215Z,211.21
2022-10-28T11:36:26.151Z,199.97
2022-10-28T11:37:26.153Z,191.76
2022-10-28T11:38:26.079Z,192.55
2022-10-28T11:39:26.055Z,187.68
2022-10-28T11:40:26.054Z,191.64
2022-10-28T11:41:26.024Z,206.54
2022-10-28T11:42:26.088Z,212.30
2022-10-28T11:43:25.995Z,219.87
2022-10-28T11:44:26.052Z,234.21
2022-10-28T11:45:25.996Z,225.64
2022-10-28T11:46:26.069Z,215.67
2022-10-28T11:47:25.977Z,210.80
2022-10-28T11:48:26.073Z,217.68
2022-10-28T11:49:26.230Z,216.81
2022-10-28T11:50:25.942Z,207.98
2022-10-28T11:51:25.972Z,210.12
2022-10-28T11:52:25.918Z,213.41
2022-10-28T11:53:25.919Z,214.68
2022-10-28T11:54:25.893Z,218.40
2022-10-28T11:55:25.921Z,217.10
2022-10-28T11:56:25.904Z,215.52
2022-10-28T11:57:25.884Z,204.47
2022-10-28T11:58:25.917Z,198.87
2022-10-28T11:59:25.855Z,203.83
2022-10-28T12:00:25.980Z,210.39
2022-10-28T12:01:25.948Z,207.19
2022-10-28T12:02:25.953Z,205.50
2022-10-28T12:03:25.923Z,208.65
2022-10-28T12:04:25.803Z,201.45
2022-10-28T12:05:25.839Z,202.07
2022-10-28T12:06:25.922Z,203.07
2022-10-28T12:07:25.758Z,210.39
2022-10-28T12:08:25.825Z,215.81
2022-10-28T12:09:25.747Z,221.81
2022-10-28T12:10:25.856Z,218.99
2022-10-28T12:11:25.896Z,226.11
2022-10-28T12:12:25.806Z,213.69
2022-10-28T12:13:25.803Z,210.12
2022-10-28T12:14:25.819Z,205.50
2022-10-28T12:15:25.819Z,197.55
2022-10-28T12:16:25.731Z,191.87
2022-10-28T12:17:25.723Z,192.21
2022-10-28T12:18:25.877Z,185.34
2022-10-28T12:19:25.699Z,184.82
2022-10-28T12:20:25.797Z,179.73
2022-10-28T12:21:25.940Z,177.62
2022-10-28T12:22:25.693Z,180.71
2022-10-28T12:23:25.738Z,181.30
2022-10-28T12:24:25.680Z,194.49
2022-10-28T12:25:25.622Z,216.81
2022-10-28T12:26:25.606Z,235.05
2022-10-28T12:27:25.770Z,233.54
2022-10-28T12:28:25.645Z,243.27
2022-10-28T12:29:25.609Z,260.74
2022-10-28T12:30:25.581Z,269.33
2022-10-28T12:31:25.644Z,275.46
2022-10-28T12:32:25.568Z,285.07
2022-10-28T12:33:25.596Z,283.34
2022-10-28T12:34:25.572Z,286.32
2022-10-28T12:35:25.515Z,285.07
2022-10-28T12:36:25.526Z,274.07
2022-10-28T12:37:25.562Z,262.83
2022-10-28T12:38:25.464Z,258.27
2022-10-28T12:39:25.498Z,256.64
2022-10-28T12:40:25.530Z,257.25
2022-10-28T12:41:25.535Z,255.04
2022-10-28T12:42:25.593Z,266.69
2022-10-28T12:43:25.457Z,292.20
2022-10-28T12:44:25.722Z,316.23
2022-10-28T12:45:25.780Z,312.90
2022-10-28T12:46:25.450Z,303.32
2022-10-28T12:47:25.526Z,311.41
2022-10-28T12:48:25.417Z,324.07